sensor_id;sensor_type;location;lat;lon;timestamp;P1;durP1;ratioP1;P2;durP2;ratioP2
39880;SDS011;25554;44.954;10.068;2024-01-15T00:04:28;125.45;;;44.15;;
39880;SDS011;25554;44.954;10.068;2024-01-15T00:06:55;118.93;;;42.65;;
39880;SDS011;25554;44.954;10.068;2024-01-15T00:09:22;122.20;;;42.85;;
39880;SDS011;25554;44.954;10.068;2024-01-15T00:14:16;93.10;;;37.97;;
39880;SDS011;25554;44.954;10.068;2024-01-15T00:16:46;134.93;;;43.35;;
39880;SDS011;25554;44.954;10.068;2024-01-15T00:19:16;102.57;;;41.25;;
39880;SDS011;25554;44.954;10.068;2024-01-15T00:21:44;95.57;;;41.95;;
39880;SDS011;25554;44.954;10.068;2024-01-15T00:24:10;121.40;;;41.28;;
39880;SDS011;25554;44.954;10.068;2024-01-15T00:26:38;114.68;;;42.50;;
39880;SDS011;25554;44.954;10.068;2024-01-15T00:29:08;109.72;;;41.22;;
39880;SDS011;25554;44.954;10.068;2024-01-15T00:31:36;102.72;;;42.45;;
39880;SDS011;25554;44.954;10.068;2024-01-15T00:34:03;129.65;;;42.25;;
39880;SDS011;25554;44.954;10.068;2024-01-15T00:38:55;129.70;;;41.05;;
39880;SDS011;25554;44.954;10.068;2024-01-15T00:41:22;125.90;;;40.80;;
39880;SDS011;25554;44.954;10.068;2024-01-15T00:43:48;135.30;;;41.63;;
39880;SDS011;25554;44.954;10.068;2024-01-15T00:46:16;106.10;;;41.13;;
39880;SDS011;25554;44.954;10.068;2024-01-15T00:48:43;110.63;;;40.95;;
39880;SDS011;25554;44.954;10.068;2024-01-15T00:51:09;108.50;;;41.17;;
39880;SDS011;25554;44.954;10.068;2024-01-15T00:53:36;118.18;;;43.35;;
39880;SDS011;25554;44.954;10.068;2024-01-15T00:56:03;102.38;;;42.50;;
39880;SDS011;25554;44.954;10.068;2024-01-15T00:58:30;121.78;;;43.03;;
39880;SDS011;25554;44.954;10.068;2024-01-15T01:00:57;126.18;;;42.67;;
39880;SDS011;25554;44.954;10.068;2024-01-15T01:03:23;125.25;;;42.63;;
39880;SDS011;25554;44.954;10.068;2024-01-15T01:05:50;134.50;;;43.42;;
39880;SDS011;25554;44.954;10.068;2024-01-15T01:08:17;99.35;;;38.90;;
39880;SDS011;25554;44.954;10.068;2024-01-15T01:10:43;105.43;;;42.35;;
39880;SDS011;25554;44.954;10.068;2024-01-15T01:13:10;126.05;;;41.58;;
39880;SDS011;25554;44.954;10.068;2024-01-15T01:15:37;113.68;;;42.17;;
39880;SDS011;25554;44.954;10.068;2024-01-15T01:18:07;118.20;;;41.15;;
39880;SDS011;25554;44.954;10.068;2024-01-15T01:20:34;110.35;;;42.05;;
39880;SDS011;25554;44.954;10.068;2024-01-15T01:25:26;112.15;;;40.38;;
39880;SDS011;25554;44.954;10.068;2024-01-15T01:27:53;109.57;;;42.58;;
39880;SDS011;25554;44.954;10.068;2024-01-15T01:30:19;140.43;;;41.97;;
39880;SDS011;25554;44.954;10.068;2024-01-15T01:32:51;103.82;;;41.63;;
39880;SDS011;25554;44.954;10.068;2024-01-15T01:35:18;121.82;;;42.67;;
39880;SDS011;25554;44.954;10.068;2024-01-15T01:37:45;123.38;;;43.40;;
39880;SDS011;25554;44.954;10.068;2024-01-15T01:40:11;107.72;;;39.97;;
39880;SDS011;25554;44.954;10.068;2024-01-15T01:42:38;121.03;;;43.92;;
39880;SDS011;25554;44.954;10.068;2024-01-15T01:45:05;103.32;;;41.17;;
39880;SDS011;25554;44.954;10.068;2024-01-15T01:47:32;113.25;;;42.75;;
39880;SDS011;25554;44.954;10.068;2024-01-15T01:49:58;93.20;;;38.83;;
39880;SDS011;25554;44.954;10.068;2024-01-15T01:52:25;92.50;;;40.95;;
39880;SDS011;25554;44.954;10.068;2024-01-15T01:54:52;94.82;;;39.45;;
39880;SDS011;25554;44.954;10.068;2024-01-15T01:57:19;99.68;;;39.90;;
39880;SDS011;25554;44.954;10.068;2024-01-15T01:59:46;91.20;;;37.47;;
39880;SDS011;25554;44.954;10.068;2024-01-15T02:02:13;98.15;;;39.38;;
39880;SDS011;25554;44.954;10.068;2024-01-15T02:04:41;103.75;;;39.60;;
39880;SDS011;25554;44.954;10.068;2024-01-15T02:07:11;102.28;;;38.80;;
39880;SDS011;25554;44.954;10.068;2024-01-15T02:09:41;97.18;;;40.17;;
39880;SDS011;25554;44.954;10.068;2024-01-15T02:12:07;100.40;;;40.60;;
39880;SDS011;25554;44.954;10.068;2024-01-15T02:14:36;106.03;;;40.83;;
39880;SDS011;25554;44.954;10.068;2024-01-15T02:17:03;90.45;;;38.17;;
39880;SDS011;25554;44.954;10.068;2024-01-15T02:19:32;107.70;;;42.13;;
39880;SDS011;25554;44.954;10.068;2024-01-15T02:21:59;124.63;;;40.28;;
39880;SDS011;25554;44.954;10.068;2024-01-15T02:24:25;91.45;;;40.53;;
39880;SDS011;25554;44.954;10.068;2024-01-15T02:29:18;125.07;;;40.15;;
39880;SDS011;25554;44.954;10.068;2024-01-15T02:31:45;122.82;;;39.83;;
39880;SDS011;25554;44.954;10.068;2024-01-15T02:34:12;110.47;;;39.15;;
39880;SDS011;25554;44.954;10.068;2024-01-15T02:36:39;113.07;;;39.20;;
39880;SDS011;25554;44.954;10.068;2024-01-15T02:39:06;91.93;;;38.38;;
39880;SDS011;25554;44.954;10.068;2024-01-15T02:43:59;108.13;;;37.85;;
39880;SDS011;25554;44.954;10.068;2024-01-15T02:48:52;91.40;;;35.45;;
39880;SDS011;25554;44.954;10.068;2024-01-15T02:51:18;95.90;;;38.45;;
39880;SDS011;25554;44.954;10.068;2024-01-15T02:53:45;106.10;;;38.72;;
39880;SDS011;25554;44.954;10.068;2024-01-15T02:56:12;101.40;;;37.85;;
39880;SDS011;25554;44.954;10.068;2024-01-15T03:01:04;95.28;;;37.75;;
39880;SDS011;25554;44.954;10.068;2024-01-15T03:03:31;98.35;;;38.00;;
39880;SDS011;25554;44.954;10.068;2024-01-15T03:05:58;100.43;;;39.67;;
39880;SDS011;25554;44.954;10.068;2024-01-15T03:08:25;92.40;;;40.05;;
39880;SDS011;25554;44.954;10.068;2024-01-15T03:10:51;109.72;;;38.75;;
39880;SDS011;25554;44.954;10.068;2024-01-15T03:13:19;101.95;;;40.90;;
39880;SDS011;25554;44.954;10.068;2024-01-15T03:15:46;98.30;;;41.40;;
39880;SDS011;25554;44.954;10.068;2024-01-15T03:18:13;102.57;;;42.65;;
39880;SDS011;25554;44.954;10.068;2024-01-15T03:20:39;104.70;;;40.33;;
39880;SDS011;25554;44.954;10.068;2024-01-15T03:23:06;102.25;;;41.03;;
39880;SDS011;25554;44.954;10.068;2024-01-15T03:25:33;94.57;;;40.83;;
39880;SDS011;25554;44.954;10.068;2024-01-15T03:27:59;85.65;;;38.00;;
39880;SDS011;25554;44.954;10.068;2024-01-15T03:30:26;81.95;;;37.15;;
39880;SDS011;25554;44.954;10.068;2024-01-15T03:32:53;100.18;;;42.08;;
39880;SDS011;25554;44.954;10.068;2024-01-15T03:35:19;94.43;;;39.97;;
39880;SDS011;25554;44.954;10.068;2024-01-15T03:37:46;92.32;;;39.08;;
39880;SDS011;25554;44.954;10.068;2024-01-15T03:40:12;96.57;;;41.53;;
39880;SDS011;25554;44.954;10.068;2024-01-15T03:42:39;91.18;;;39.15;;
39880;SDS011;25554;44.954;10.068;2024-01-15T03:47:32;88.47;;;38.10;;
39880;SDS011;25554;44.954;10.068;2024-01-15T03:50:00;88.57;;;39.40;;
39880;SDS011;25554;44.954;10.068;2024-01-15T03:52:27;84.07;;;37.38;;
39880;SDS011;25554;44.954;10.068;2024-01-15T03:54:53;79.07;;;37.47;;
39880;SDS011;25554;44.954;10.068;2024-01-15T03:59:46;81.80;;;38.05;;
39880;SDS011;25554;44.954;10.068;2024-01-15T04:02:12;85.25;;;38.55;;
39880;SDS011;25554;44.954;10.068;2024-01-15T04:04:45;82.30;;;38.72;;
39880;SDS011;25554;44.954;10.068;2024-01-15T04:07:12;79.35;;;37.50;;
39880;SDS011;25554;44.954;10.068;2024-01-15T04:09:38;80.10;;;38.40;;
39880;SDS011;25554;44.954;10.068;2024-01-15T04:12:05;76.07;;;35.22;;
39880;SDS011;25554;44.954;10.068;2024-01-15T04:14:32;77.18;;;37.80;;
39880;SDS011;25554;44.954;10.068;2024-01-15T04:16:59;73.65;;;35.80;;
39880;SDS011;25554;44.954;10.068;2024-01-15T04:19:26;79.32;;;37.35;;
39880;SDS011;25554;44.954;10.068;2024-01-15T04:24:19;69.10;;;31.55;;
39880;SDS011;25554;44.954;10.068;2024-01-15T04:26:46;64.32;;;32.30;;
39880;SDS011;25554;44.954;10.068;2024-01-15T04:29:12;69.05;;;34.47;;
39880;SDS011;25554;44.954;10.068;2024-01-15T04:31:39;73.03;;;32.63;;
39880;SDS011;25554;44.954;10.068;2024-01-15T04:36:31;70.78;;;31.45;;
39880;SDS011;25554;44.954;10.068;2024-01-15T04:39:03;61.95;;;30.95;;
39880;SDS011;25554;44.954;10.068;2024-01-15T04:41:30;66.15;;;31.55;;
39880;SDS011;25554;44.954;10.068;2024-01-15T04:43:57;63.97;;;31.60;;
39880;SDS011;25554;44.954;10.068;2024-01-15T04:46:23;68.03;;;32.63;;
39880;SDS011;25554;44.954;10.068;2024-01-15T04:51:16;72.30;;;31.92;;
39880;SDS011;25554;44.954;10.068;2024-01-15T04:56:08;72.40;;;31.20;;
39880;SDS011;25554;44.954;10.068;2024-01-15T05:01:01;71.82;;;32.88;;
39880;SDS011;25554;44.954;10.068;2024-01-15T05:03:28;71.80;;;34.15;;
39880;SDS011;25554;44.954;10.068;2024-01-15T05:05:54;76.00;;;35.63;;
39880;SDS011;25554;44.954;10.068;2024-01-15T05:08:21;79.22;;;34.28;;
39880;SDS011;25554;44.954;10.068;2024-01-15T05:10:48;72.95;;;32.92;;
39880;SDS011;25554;44.954;10.068;2024-01-15T05:13:14;76.43;;;35.47;;
39880;SDS011;25554;44.954;10.068;2024-01-15T05:18:07;78.25;;;34.30;;
39880;SDS011;25554;44.954;10.068;2024-01-15T05:20:33;80.13;;;35.28;;
39880;SDS011;25554;44.954;10.068;2024-01-15T05:23:00;76.50;;;36.33;;
39880;SDS011;25554;44.954;10.068;2024-01-15T05:25:29;82.28;;;36.00;;
39880;SDS011;25554;44.954;10.068;2024-01-15T05:28:01;75.05;;;33.58;;
39880;SDS011;25554;44.954;10.068;2024-01-15T05:30:28;82.18;;;37.17;;
39880;SDS011;25554;44.954;10.068;2024-01-15T05:32:56;77.47;;;36.00;;
39880;SDS011;25554;44.954;10.068;2024-01-15T05:35:23;71.18;;;32.85;;
39880;SDS011;25554;44.954;10.068;2024-01-15T05:37:50;84.28;;;37.90;;
39880;SDS011;25554;44.954;10.068;2024-01-15T05:40:17;75.43;;;36.72;;
39880;SDS011;25554;44.954;10.068;2024-01-15T05:42:44;75.05;;;35.70;;
39880;SDS011;25554;44.954;10.068;2024-01-15T05:45:11;79.32;;;35.65;;
39880;SDS011;25554;44.954;10.068;2024-01-15T05:47:37;75.47;;;36.50;;
39880;SDS011;25554;44.954;10.068;2024-01-15T05:52:30;75.57;;;33.27;;
39880;SDS011;25554;44.954;10.068;2024-01-15T05:54:57;71.95;;;32.88;;
39880;SDS011;25554;44.954;10.068;2024-01-15T05:57:24;77.80;;;33.58;;
39880;SDS011;25554;44.954;10.068;2024-01-15T05:59:51;78.05;;;35.45;;
39880;SDS011;25554;44.954;10.068;2024-01-15T06:02:17;76.93;;;35.97;;
39880;SDS011;25554;44.954;10.068;2024-01-15T06:04:44;74.85;;;34.75;;
39880;SDS011;25554;44.954;10.068;2024-01-15T06:07:13;72.53;;;33.58;;
39880;SDS011;25554;44.954;10.068;2024-01-15T06:09:42;73.47;;;35.42;;
39880;SDS011;25554;44.954;10.068;2024-01-15T06:12:09;65.30;;;33.35;;
39880;SDS011;25554;44.954;10.068;2024-01-15T06:14:36;73.55;;;35.67;;
39880;SDS011;25554;44.954;10.068;2024-01-15T06:17:02;68.65;;;35.10;;
39880;SDS011;25554;44.954;10.068;2024-01-15T06:19:29;69.32;;;35.60;;
39880;SDS011;25554;44.954;10.068;2024-01-15T06:21:55;70.47;;;33.45;;
39880;SDS011;25554;44.954;10.068;2024-01-15T06:24:25;67.68;;;31.83;;
39880;SDS011;25554;44.954;10.068;2024-01-15T06:29:18;75.63;;;34.10;;
39880;SDS011;25554;44.954;10.068;2024-01-15T06:34:47;78.85;;;36.00;;
39880;SDS011;25554;44.954;10.068;2024-01-15T06:37:14;68.57;;;33.95;;
39880;SDS011;25554;44.954;10.068;2024-01-15T06:40:01;73.97;;;35.85;;
39880;SDS011;25554;44.954;10.068;2024-01-15T06:46:31;70.38;;;34.35;;
39880;SDS011;25554;44.954;10.068;2024-01-15T06:49:01;67.30;;;34.25;;
39880;SDS011;25554;44.954;10.068;2024-01-15T06:53:54;67.60;;;32.35;;
39880;SDS011;25554;44.954;10.068;2024-01-15T06:58:47;65.75;;;32.72;;
39880;SDS011;25554;44.954;10.068;2024-01-15T07:03:39;77.53;;;36.28;;
39880;SDS011;25554;44.954;10.068;2024-01-15T07:08:32;64.55;;;33.60;;
39880;SDS011;25554;44.954;10.068;2024-01-15T07:10:58;74.78;;;35.42;;
39880;SDS011;25554;44.954;10.068;2024-01-15T07:13:25;70.60;;;34.30;;
39880;SDS011;25554;44.954;10.068;2024-01-15T07:18:18;82.45;;;35.85;;
39880;SDS011;25554;44.954;10.068;2024-01-15T07:20:46;70.70;;;33.85;;
39880;SDS011;25554;44.954;10.068;2024-01-15T07:23:13;75.47;;;35.20;;
39880;SDS011;25554;44.954;10.068;2024-01-15T07:25:40;75.28;;;37.22;;
39880;SDS011;25554;44.954;10.068;2024-01-15T07:28:07;79.28;;;38.33;;
39880;SDS011;25554;44.954;10.068;2024-01-15T07:30:34;72.93;;;35.05;;
39880;SDS011;25554;44.954;10.068;2024-01-15T07:33:04;76.10;;;38.58;;
39880;SDS011;25554;44.954;10.068;2024-01-15T07:35:32;75.60;;;37.45;;
39880;SDS011;25554;44.954;10.068;2024-01-15T07:38:00;76.55;;;38.05;;
39880;SDS011;25554;44.954;10.068;2024-01-15T07:40:32;75.28;;;36.67;;
39880;SDS011;25554;44.954;10.068;2024-01-15T07:43:03;75.55;;;37.28;;
39880;SDS011;25554;44.954;10.068;2024-01-15T07:45:30;75.90;;;37.38;;
39880;SDS011;25554;44.954;10.068;2024-01-15T07:47:58;74.68;;;36.95;;
39880;SDS011;25554;44.954;10.068;2024-01-15T07:50:29;76.63;;;36.90;;
39880;SDS011;25554;44.954;10.068;2024-01-15T07:52:57;72.90;;;36.33;;
39880;SDS011;25554;44.954;10.068;2024-01-15T07:55:25;78.47;;;38.30;;
39880;SDS011;25554;44.954;10.068;2024-01-15T07:57:53;71.32;;;35.60;;
39880;SDS011;25554;44.954;10.068;2024-01-15T08:00:24;70.55;;;37.35;;
39880;SDS011;25554;44.954;10.068;2024-01-15T08:02:51;76.30;;;35.53;;
39880;SDS011;25554;44.954;10.068;2024-01-15T08:05:25;73.78;;;36.20;;
39880;SDS011;25554;44.954;10.068;2024-01-15T08:07:54;68.32;;;36.47;;
39880;SDS011;25554;44.954;10.068;2024-01-15T08:10:22;70.60;;;36.67;;
39880;SDS011;25554;44.954;10.068;2024-01-15T08:12:48;77.90;;;36.65;;
39880;SDS011;25554;44.954;10.068;2024-01-15T08:15:15;74.80;;;36.95;;
39880;SDS011;25554;44.954;10.068;2024-01-15T08:17:46;73.13;;;35.95;;
39880;SDS011;25554;44.954;10.068;2024-01-15T08:20:13;75.20;;;37.10;;
39880;SDS011;25554;44.954;10.068;2024-01-15T08:22:42;70.25;;;37.85;;
39880;SDS011;25554;44.954;10.068;2024-01-15T08:25:08;74.05;;;38.33;;
39880;SDS011;25554;44.954;10.068;2024-01-15T08:27:37;74.88;;;38.03;;
39880;SDS011;25554;44.954;10.068;2024-01-15T08:30:05;77.55;;;38.67;;
39880;SDS011;25554;44.954;10.068;2024-01-15T08:32:37;72.13;;;36.88;;
39880;SDS011;25554;44.954;10.068;2024-01-15T08:35:09;79.47;;;38.75;;
39880;SDS011;25554;44.954;10.068;2024-01-15T08:37:38;75.45;;;39.40;;
39880;SDS011;25554;44.954;10.068;2024-01-15T08:40:06;76.53;;;36.90;;
39880;SDS011;25554;44.954;10.068;2024-01-15T08:42:33;73.55;;;37.40;;
39880;SDS011;25554;44.954;10.068;2024-01-15T08:44:59;78.00;;;38.78;;
39880;SDS011;25554;44.954;10.068;2024-01-15T08:49:53;75.13;;;35.83;;
39880;SDS011;25554;44.954;10.068;2024-01-15T08:52:20;72.53;;;36.53;;
39880;SDS011;25554;44.954;10.068;2024-01-15T08:54:47;76.68;;;37.63;;
39880;SDS011;25554;44.954;10.068;2024-01-15T08:59:40;75.13;;;37.38;;
39880;SDS011;25554;44.954;10.068;2024-01-15T09:02:07;73.78;;;36.97;;
39880;SDS011;25554;44.954;10.068;2024-01-15T09:04:33;80.30;;;40.35;;
39880;SDS011;25554;44.954;10.068;2024-01-15T09:07:01;72.95;;;39.40;;
39880;SDS011;25554;44.954;10.068;2024-01-15T09:09:28;84.82;;;40.50;;
39880;SDS011;25554;44.954;10.068;2024-01-15T09:11:54;72.20;;;39.55;;
39880;SDS011;25554;44.954;10.068;2024-01-15T09:14:24;85.50;;;39.92;;
39880;SDS011;25554;44.954;10.068;2024-01-15T09:16:56;77.10;;;38.90;;
39880;SDS011;25554;44.954;10.068;2024-01-15T09:19:58;65.97;;;35.95;;
39880;SDS011;25554;44.954;10.068;2024-01-15T09:37:35;70.22;;;36.17;;
39880;SDS011;25554;44.954;10.068;2024-01-15T09:41:13;73.00;;;36.28;;
39880;SDS011;25554;44.954;10.068;2024-01-15T09:43:39;68.55;;;36.30;;
39880;SDS011;25554;44.954;10.068;2024-01-15T09:46:06;67.90;;;36.55;;
39880;SDS011;25554;44.954;10.068;2024-01-15T09:48:34;72.93;;;37.67;;
39880;SDS011;25554;44.954;10.068;2024-01-15T09:51:01;71.38;;;37.63;;
39880;SDS011;25554;44.954;10.068;2024-01-15T09:53:28;72.78;;;38.10;;
39880;SDS011;25554;44.954;10.068;2024-01-15T09:55:57;70.53;;;36.30;;
39880;SDS011;25554;44.954;10.068;2024-01-15T10:06:11;75.20;;;37.40;;
39880;SDS011;25554;44.954;10.068;2024-01-15T10:19:23;71.85;;;36.22;;
39880;SDS011;25554;44.954;10.068;2024-01-15T10:25:38;69.88;;;36.88;;
39880;SDS011;25554;44.954;10.068;2024-01-15T10:28:06;76.82;;;36.60;;
39880;SDS011;25554;44.954;10.068;2024-01-15T10:30:32;72.00;;;36.38;;
39880;SDS011;25554;44.954;10.068;2024-01-15T10:33:00;66.22;;;36.70;;
39880;SDS011;25554;44.954;10.068;2024-01-15T10:35:30;66.03;;;35.33;;
39880;SDS011;25554;44.954;10.068;2024-01-15T10:37:58;68.60;;;36.88;;
39880;SDS011;25554;44.954;10.068;2024-01-15T10:40:25;62.28;;;34.90;;
39880;SDS011;25554;44.954;10.068;2024-01-15T10:42:54;61.35;;;34.03;;
39880;SDS011;25554;44.954;10.068;2024-01-15T10:45:21;62.75;;;35.67;;
39880;SDS011;25554;44.954;10.068;2024-01-15T10:47:48;61.22;;;35.28;;
39880;SDS011;25554;44.954;10.068;2024-01-15T10:50:14;67.55;;;35.22;;
39880;SDS011;25554;44.954;10.068;2024-01-15T10:52:44;71.50;;;35.97;;
39880;SDS011;25554;44.954;10.068;2024-01-15T10:55:46;70.32;;;35.58;;
39880;SDS011;25554;44.954;10.068;2024-01-15T11:01:55;61.33;;;33.78;;
39880;SDS011;25554;44.954;10.068;2024-01-15T11:04:22;63.00;;;33.67;;
39880;SDS011;25554;44.954;10.068;2024-01-15T11:06:52;64.15;;;34.85;;
39880;SDS011;25554;44.954;10.068;2024-01-15T11:09:20;64.20;;;35.25;;
39880;SDS011;25554;44.954;10.068;2024-01-15T11:11:53;66.53;;;33.83;;
39880;SDS011;25554;44.954;10.068;2024-01-15T11:14:40;59.45;;;32.50;;
39880;SDS011;25554;44.954;10.068;2024-01-15T11:17:11;59.85;;;32.28;;
39880;SDS011;25554;44.954;10.068;2024-01-15T11:19:48;69.20;;;32.88;;
39880;SDS011;25554;44.954;10.068;2024-01-15T11:25:04;58.78;;;31.90;;
39880;SDS011;25554;44.954;10.068;2024-01-15T11:30:09;57.97;;;32.45;;
39880;SDS011;25554;44.954;10.068;2024-01-15T11:32:40;53.67;;;32.35;;
39880;SDS011;25554;44.954;10.068;2024-01-15T11:35:08;53.45;;;31.50;;
39880;SDS011;25554;44.954;10.068;2024-01-15T11:42:59;58.03;;;32.10;;
39880;SDS011;25554;44.954;10.068;2024-01-15T11:50:45;60.85;;;33.42;;
39880;SDS011;25554;44.954;10.068;2024-01-15T11:55:57;64.10;;;33.03;;
39880;SDS011;25554;44.954;10.068;2024-01-15T11:58:25;61.70;;;33.47;;
39880;SDS011;25554;44.954;10.068;2024-01-15T12:00:52;61.80;;;32.63;;
39880;SDS011;25554;44.954;10.068;2024-01-15T12:03:21;62.60;;;35.00;;
39880;SDS011;25554;44.954;10.068;2024-01-15T12:05:48;58.58;;;32.28;;
39880;SDS011;25554;44.954;10.068;2024-01-15T12:08:15;58.65;;;32.60;;
39880;SDS011;25554;44.954;10.068;2024-01-15T12:10:50;62.92;;;34.08;;
39880;SDS011;25554;44.954;10.068;2024-01-15T12:13:17;62.40;;;33.40;;
39880;SDS011;25554;44.954;10.068;2024-01-15T12:15:44;57.28;;;31.95;;
39880;SDS011;25554;44.954;10.068;2024-01-15T12:18:13;61.30;;;31.25;;
39880;SDS011;25554;44.954;10.068;2024-01-15T12:20:42;59.97;;;32.70;;
39880;SDS011;25554;44.954;10.068;2024-01-15T12:23:09;60.72;;;31.67;;
39880;SDS011;25554;44.954;10.068;2024-01-15T12:25:37;55.70;;;30.35;;
39880;SDS011;25554;44.954;10.068;2024-01-15T12:28:10;59.45;;;32.10;;
39880;SDS011;25554;44.954;10.068;2024-01-15T12:30:39;59.08;;;33.05;;
39880;SDS011;25554;44.954;10.068;2024-01-15T12:33:07;59.92;;;32.38;;
39880;SDS011;25554;44.954;10.068;2024-01-15T12:35:34;59.60;;;32.45;;
39880;SDS011;25554;44.954;10.068;2024-01-15T12:38:02;54.10;;;29.73;;
39880;SDS011;25554;44.954;10.068;2024-01-15T12:40:30;54.85;;;30.13;;
39880;SDS011;25554;44.954;10.068;2024-01-15T12:42:58;57.10;;;31.02;;
39880;SDS011;25554;44.954;10.068;2024-01-15T12:45:25;54.47;;;31.00;;
39880;SDS011;25554;44.954;10.068;2024-01-15T12:47:54;52.10;;;30.00;;
39880;SDS011;25554;44.954;10.068;2024-01-15T12:50:23;56.35;;;30.02;;
39880;SDS011;25554;44.954;10.068;2024-01-15T12:52:54;49.15;;;27.27;;
39880;SDS011;25554;44.954;10.068;2024-01-15T12:55:22;46.22;;;26.80;;
39880;SDS011;25554;44.954;10.068;2024-01-15T13:00:15;51.47;;;28.83;;
39880;SDS011;25554;44.954;10.068;2024-01-15T13:02:51;48.22;;;27.65;;
39880;SDS011;25554;44.954;10.068;2024-01-15T13:05:23;49.83;;;28.13;;
39880;SDS011;25554;44.954;10.068;2024-01-15T13:07:51;49.28;;;28.63;;
39880;SDS011;25554;44.954;10.068;2024-01-15T13:10:17;49.13;;;28.92;;
39880;SDS011;25554;44.954;10.068;2024-01-15T13:12:47;46.88;;;27.83;;
39880;SDS011;25554;44.954;10.068;2024-01-15T13:15:14;54.67;;;29.35;;
39880;SDS011;25554;44.954;10.068;2024-01-15T13:17:41;47.83;;;28.80;;
39880;SDS011;25554;44.954;10.068;2024-01-15T13:20:08;51.08;;;27.85;;
39880;SDS011;25554;44.954;10.068;2024-01-15T13:22:37;46.13;;;26.77;;
39880;SDS011;25554;44.954;10.068;2024-01-15T13:25:05;48.30;;;27.33;;
39880;SDS011;25554;44.954;10.068;2024-01-15T13:27:37;47.42;;;26.35;;
39880;SDS011;25554;44.954;10.068;2024-01-15T13:30:04;44.60;;;25.38;;
39880;SDS011;25554;44.954;10.068;2024-01-15T13:32:32;50.30;;;27.50;;
39880;SDS011;25554;44.954;10.068;2024-01-15T13:34:59;41.67;;;25.83;;
39880;SDS011;25554;44.954;10.068;2024-01-15T13:37:26;45.13;;;26.90;;
39880;SDS011;25554;44.954;10.068;2024-01-15T13:39:52;46.95;;;27.27;;
39880;SDS011;25554;44.954;10.068;2024-01-15T13:42:20;50.50;;;26.83;;
39880;SDS011;25554;44.954;10.068;2024-01-15T13:44:49;45.35;;;25.38;;
39880;SDS011;25554;44.954;10.068;2024-01-15T13:47:16;46.45;;;27.83;;
39880;SDS011;25554;44.954;10.068;2024-01-15T13:49:42;45.22;;;26.08;;
39880;SDS011;25554;44.954;10.068;2024-01-15T13:52:15;46.25;;;27.55;;
39880;SDS011;25554;44.954;10.068;2024-01-15T13:54:41;45.42;;;26.42;;
39880;SDS011;25554;44.954;10.068;2024-01-15T13:57:08;47.88;;;27.55;;
39880;SDS011;25554;44.954;10.068;2024-01-15T14:02:01;43.25;;;26.42;;
39880;SDS011;25554;44.954;10.068;2024-01-15T14:04:28;46.85;;;26.70;;
39880;SDS011;25554;44.954;10.068;2024-01-15T14:06:55;46.53;;;25.10;;
39880;SDS011;25554;44.954;10.068;2024-01-15T14:11:48;45.08;;;24.20;;
39880;SDS011;25554;44.954;10.068;2024-01-15T14:14:15;44.78;;;25.48;;
39880;SDS011;25554;44.954;10.068;2024-01-15T14:16:42;44.58;;;25.58;;
39880;SDS011;25554;44.954;10.068;2024-01-15T14:19:09;44.85;;;26.05;;
39880;SDS011;25554;44.954;10.068;2024-01-15T14:21:35;47.17;;;26.08;;
39880;SDS011;25554;44.954;10.068;2024-01-15T14:24:02;45.40;;;26.05;;
39880;SDS011;25554;44.954;10.068;2024-01-15T14:26:30;43.00;;;26.25;;
39880;SDS011;25554;44.954;10.068;2024-01-15T14:28:57;45.45;;;24.90;;
39880;SDS011;25554;44.954;10.068;2024-01-15T14:31:27;42.28;;;25.48;;
39880;SDS011;25554;44.954;10.068;2024-01-15T14:33:54;44.63;;;25.80;;
39880;SDS011;25554;44.954;10.068;2024-01-15T14:36:25;44.78;;;26.73;;
39880;SDS011;25554;44.954;10.068;2024-01-15T14:38:51;52.00;;;25.38;;
39880;SDS011;25554;44.954;10.068;2024-01-15T14:41:24;41.28;;;23.98;;
39880;SDS011;25554;44.954;10.068;2024-01-15T14:43:55;42.75;;;24.90;;
39880;SDS011;25554;44.954;10.068;2024-01-15T14:46:23;42.78;;;24.33;;
39880;SDS011;25554;44.954;10.068;2024-01-15T14:51:16;43.00;;;24.08;;
39880;SDS011;25554;44.954;10.068;2024-01-15T14:53:43;43.08;;;24.70;;
39880;SDS011;25554;44.954;10.068;2024-01-15T14:56:09;44.38;;;26.05;;
39880;SDS011;25554;44.954;10.068;2024-01-15T14:58:39;41.05;;;25.67;;
39880;SDS011;25554;44.954;10.068;2024-01-15T15:01:05;44.47;;;25.52;;
39880;SDS011;25554;44.954;10.068;2024-01-15T15:03:32;47.38;;;26.02;;
39880;SDS011;25554;44.954;10.068;2024-01-15T15:08:24;45.17;;;24.77;;
39880;SDS011;25554;44.954;10.068;2024-01-15T15:10:50;45.22;;;24.95;;
39880;SDS011;25554;44.954;10.068;2024-01-15T15:13:17;43.33;;;25.73;;
39880;SDS011;25554;44.954;10.068;2024-01-15T15:18:10;41.78;;;22.65;;
39880;SDS011;25554;44.954;10.068;2024-01-15T15:20:36;39.65;;;22.50;;
39880;SDS011;25554;44.954;10.068;2024-01-15T15:23:03;39.35;;;23.50;;
39880;SDS011;25554;44.954;10.068;2024-01-15T15:25:34;44.60;;;25.20;;
39880;SDS011;25554;44.954;10.068;2024-01-15T15:28:01;46.75;;;25.40;;
39880;SDS011;25554;44.954;10.068;2024-01-15T15:30:30;38.15;;;23.30;;
39880;SDS011;25554;44.954;10.068;2024-01-15T15:32:57;45.78;;;25.02;;
39880;SDS011;25554;44.954;10.068;2024-01-15T15:35:23;45.95;;;26.05;;
39880;SDS011;25554;44.954;10.068;2024-01-15T15:37:50;48.28;;;26.15;;
39880;SDS011;25554;44.954;10.068;2024-01-15T15:40:16;46.00;;;24.75;;
39880;SDS011;25554;44.954;10.068;2024-01-15T15:42:43;51.28;;;26.30;;
39880;SDS011;25554;44.954;10.068;2024-01-15T15:45:09;48.20;;;26.60;;
39880;SDS011;25554;44.954;10.068;2024-01-15T15:47:35;47.03;;;27.40;;
39880;SDS011;25554;44.954;10.068;2024-01-15T15:50:02;46.70;;;27.88;;
39880;SDS011;25554;44.954;10.068;2024-01-15T15:54:55;54.47;;;27.15;;
39880;SDS011;25554;44.954;10.068;2024-01-15T15:59:48;45.08;;;24.02;;
39880;SDS011;25554;44.954;10.068;2024-01-15T16:04:40;48.42;;;24.55;;
39880;SDS011;25554;44.954;10.068;2024-01-15T16:07:07;46.80;;;25.55;;
39880;SDS011;25554;44.954;10.068;2024-01-15T16:09:35;48.53;;;26.17;;
39880;SDS011;25554;44.954;10.068;2024-01-15T16:12:02;56.85;;;28.23;;
39880;SDS011;25554;44.954;10.068;2024-01-15T16:14:28;47.95;;;25.73;;
39880;SDS011;25554;44.954;10.068;2024-01-15T16:16:55;46.35;;;25.75;;
39880;SDS011;25554;44.954;10.068;2024-01-15T16:19:23;44.28;;;26.27;;
39880;SDS011;25554;44.954;10.068;2024-01-15T16:21:50;47.60;;;26.98;;
39880;SDS011;25554;44.954;10.068;2024-01-15T16:24:16;49.83;;;26.02;;
39880;SDS011;25554;44.954;10.068;2024-01-15T16:26:44;43.47;;;24.25;;
39880;SDS011;25554;44.954;10.068;2024-01-15T16:31:39;47.70;;;26.08;;
39880;SDS011;25554;44.954;10.068;2024-01-15T16:34:06;46.05;;;26.05;;
39880;SDS011;25554;44.954;10.068;2024-01-15T16:36:33;52.80;;;27.08;;
39880;SDS011;25554;44.954;10.068;2024-01-15T16:39:00;67.53;;;29.15;;
39880;SDS011;25554;44.954;10.068;2024-01-15T16:41:26;50.13;;;26.77;;
39880;SDS011;25554;44.954;10.068;2024-01-15T16:43:52;66.22;;;28.65;;